createdAt,value
2019-04-01T00:04:50.140Z,99.90
2019-04-01T00:09:48.591Z,99.90
2019-04-01T00:14:48.623Z,99.90
2019-04-01T00:19:47.224Z,99.90
2019-04-01T00:22:16.569Z,99.90
2019-04-01T00:27:15.013Z,99.90
2019-04-01T00:32:13.462Z,99.90
2019-04-01T00:34:42.815Z,99.90
2019-04-01T00:39:41.342Z,99.90
2019-04-01T00:42:12.332Z,99.90
2019-04-01T00:44:41.691Z,99.90
2019-04-01T00:57:07.453Z,99.90
2019-04-01T01:04:35.296Z,99.90
2019-04-01T01:09:33.753Z,99.90
2019-04-01T01:14:32.210Z,99.90
2019-04-01T01:17:01.571Z,99.90
2019-04-01T01:26:59.921Z,99.90
2019-04-01T01:31:58.347Z,99.90
2019-04-01T01:36:56.837Z,99.90
2019-04-01T01:39:26.208Z,99.90
2019-04-01T01:44:24.640Z,99.90
2019-04-01T01:51:52.177Z,99.90
2019-04-01T01:54:21.522Z,99.90
2019-04-01T01:56:50.877Z,99.90
2019-04-01T02:01:49.431Z,99.90
2019-04-01T02:04:18.807Z,99.90
2019-04-01T02:11:49.533Z,99.90
2019-04-01T02:14:18.897Z,99.90
2019-04-01T02:24:15.542Z,99.90
2019-04-01T02:29:14.034Z,99.90
2019-04-01T02:34:12.710Z,99.90
2019-04-01T02:36:42.064Z,99.90
2019-04-01T02:39:11.442Z,99.90
2019-04-01T02:59:04.433Z,99.90
2019-04-01T03:01:33.789Z,99.90
2019-04-01T03:04:03.123Z,99.90
2019-04-01T03:06:32.547Z,99.90
2019-04-01T03:09:01.881Z,99.90
2019-04-01T03:11:31.236Z,99.90
2019-04-01T03:14:00.629Z,99.90
2019-04-01T03:18:59.199Z,99.90
2019-04-01T03:21:28.509Z,99.90
2019-04-01T03:31:25.237Z,99.90
2019-04-01T03:33:54.578Z,99.90
2019-04-01T03:36:23.935Z,99.90
2019-04-01T03:38:53.269Z,99.90
2019-04-01T03:41:22.627Z,99.90
2019-04-01T03:46:21.042Z,99.90
2019-04-01T03:51:19.510Z,99.90
2019-04-01T03:56:17.926Z,99.90
2019-04-01T03:58:47.287Z,99.90
2019-04-01T04:03:45.990Z,99.90
2019-04-01T04:08:44.450Z,99.90
2019-04-01T04:11:13.771Z,99.90
2019-04-01T04:23:39.495Z,99.90
2019-04-01T04:28:37.899Z,99.90
2019-04-01T04:33:36.343Z,99.90
2019-04-01T04:38:35.258Z,99.90
2019-04-01T04:41:04.646Z,99.90
2019-04-01T04:53:31.220Z,99.90
2019-04-01T04:56:00.613Z,99.90
2019-04-01T05:00:59.185Z,99.90
2019-04-01T05:08:26.923Z,99.90
2019-04-01T05:18:23.971Z,99.90
2019-04-01T05:23:23.289Z,99.90
2019-04-01T05:28:23.794Z,99.90
2019-04-01T05:30:54.313Z,99.90
2019-04-01T05:38:22.267Z,99.90
2019-04-01T05:48:19.639Z,99.90
2019-04-01T05:53:18.213Z,99.90
2019-04-01T05:55:47.864Z,99.90
2019-04-01T06:00:48.258Z,99.90
2019-04-01T06:05:46.833Z,99.90
2019-04-01T06:08:16.342Z,99.90
2019-04-01T06:13:14.973Z,99.90
2019-04-01T06:15:44.502Z,99.90
2019-04-01T06:20:43.420Z,99.10
2019-04-01T06:30:40.909Z,97.40
2019-04-01T06:35:39.456Z,97.60
2019-04-01T06:38:08.923Z,97.70
2019-04-01T06:55:33.706Z,95.10
2019-04-01T06:58:03.390Z,94.30
2019-04-01T07:03:02.300Z,94.80
2019-04-01T07:05:31.869Z,94.80
2019-04-01T07:08:01.433Z,92.60
2019-04-01T07:13:00.227Z,95.60
2019-04-01T07:22:59.741Z,96.10
2019-04-01T07:28:00.603Z,96.60
2019-04-01T07:30:30.129Z,95.90
2019-04-01T07:35:29.070Z,96.30
2019-04-01T07:37:59.838Z,96.40
2019-04-01T07:40:29.406Z,96.50
2019-04-01T07:42:59.272Z,97.00
2019-04-01T07:52:56.512Z,96.20
2019-04-01T07:57:55.345Z,95.80
2019-04-01T08:00:24.782Z,96.30
2019-04-01T08:05:26.079Z,95.80
2019-04-01T08:07:56.506Z,95.40
2019-04-01T08:10:25.875Z,96.10
2019-04-01T08:12:55.363Z,96.00
2019-04-01T08:15:24.777Z,94.70
2019-04-01T08:22:59.603Z,92.70
2019-04-01T08:30:27.416Z,93.30
2019-04-01T08:42:54.515Z,93.20
2019-04-01T08:55:21.806Z,92.20
2019-04-01T09:02:50.107Z,93.30
2019-04-01T09:10:19.888Z,91.90
2019-04-01T09:15:19.106Z,92.00
2019-04-01T09:27:45.344Z,90.30
2019-04-01T09:30:18.527Z,89.00
2019-04-01T09:35:16.098Z,89.20
2019-04-01T09:37:45.701Z,88.80
2019-04-01T09:40:15.309Z,88.10
2019-04-01T09:42:44.721Z,85.90
2019-04-01T09:45:16.020Z,86.70
2019-04-01T09:47:45.520Z,87.30
2019-04-01T10:00:12.912Z,83.10
2019-04-01T10:02:42.283Z,83.30
2019-04-01T10:10:12.675Z,81.10
2019-04-01T10:12:42.446Z,80.80
2019-04-01T10:27:38.710Z,77.10
2019-04-01T10:30:09.522Z,76.30
2019-04-01T10:32:38.934Z,75.60
2019-04-01T10:35:09.883Z,75.70
2019-04-01T10:37:39.339Z,77.30
2019-04-01T10:40:09.128Z,78.80
2019-04-01T10:42:38.937Z,80.70
2019-04-01T10:45:10.080Z,80.00
2019-04-01T10:50:10.681Z,76.40
2019-04-01T10:52:43.799Z,71.50
2019-04-01T10:55:11.442Z,77.20
2019-04-01T10:57:43.502Z,76.90
2019-04-01T11:02:41.746Z,76.60
2019-04-01T11:05:11.527Z,77.20
2019-04-01T11:07:40.888Z,76.40
2019-04-01T11:12:41.410Z,74.00
2019-04-01T11:27:37.540Z,75.50
2019-04-01T11:35:08.341Z,64.00
2019-04-01T11:37:37.888Z,75.00
2019-04-01T11:40:11.285Z,70.30
2019-04-01T11:45:10.782Z,74.20
2019-04-01T11:50:09.573Z,60.90
2019-04-01T11:55:09.696Z,72.70
2019-04-01T12:00:13.422Z,72.30
2019-04-01T12:02:43.180Z,69.80
2019-04-01T12:05:12.709Z,71.20
2019-04-01T12:07:42.113Z,68.60
2019-04-01T12:12:41.207Z,73.00
2019-04-01T12:15:12.435Z,72.90
2019-04-01T12:22:45.301Z,72.00
2019-04-01T12:27:41.363Z,72.60
2019-04-01T12:30:11.128Z,73.40
2019-04-01T12:32:40.891Z,70.00
2019-04-01T12:37:39.656Z,71.60
2019-04-01T12:40:09.276Z,71.50
2019-04-01T12:42:38.789Z,72.00
2019-04-01T12:47:37.531Z,68.10
2019-04-01T12:55:08.179Z,69.80
2019-04-01T12:57:37.611Z,70.50
2019-04-01T13:00:09.997Z,66.50
2019-04-01T13:02:39.419Z,69.50
2019-04-01T13:10:08.648Z,65.00
2019-04-01T13:12:38.061Z,70.40
2019-04-01T13:22:38.028Z,70.90
2019-04-01T13:25:08.156Z,62.90
2019-04-01T13:27:37.599Z,63.50
2019-04-01T13:32:36.890Z,71.80
2019-04-01T13:37:36.478Z,71.90
2019-04-01T13:40:07.095Z,68.10
2019-04-01T13:42:36.717Z,70.30
2019-04-01T13:52:36.757Z,71.60
2019-04-01T14:00:06.683Z,70.20
2019-04-01T14:05:07.280Z,70.80
2019-04-01T14:07:37.818Z,70.90
2019-04-01T14:10:08.785Z,57.50
2019-04-01T14:15:09.031Z,70.40
2019-04-01T14:20:08.553Z,71.20
2019-04-01T14:37:37.690Z,70.20
2019-04-01T14:40:09.350Z,57.20
2019-04-01T14:45:09.893Z,70.50
2019-04-01T14:55:11.008Z,69.30
2019-04-01T15:00:12.832Z,60.20
2019-04-01T15:02:42.301Z,67.40
2019-04-01T15:05:11.883Z,57.10
2019-04-01T15:10:10.948Z,66.00
2019-04-01T15:12:40.372Z,64.40
2019-04-01T15:17:39.491Z,68.70
2019-04-01T15:20:09.465Z,67.70
2019-04-01T15:22:38.960Z,66.90
2019-04-01T15:30:09.336Z,65.70
2019-04-01T15:32:38.812Z,64.90
2019-04-01T15:37:37.605Z,65.20
2019-04-01T15:40:10.036Z,65.30
2019-04-01T15:45:08.901Z,56.10
2019-04-01T15:50:09.305Z,66.00
2019-04-01T15:57:38.268Z,66.70
2019-04-01T16:00:09.191Z,65.80
2019-04-01T16:05:08.538Z,66.20
2019-04-01T16:07:41.461Z,55.80
2019-04-01T16:10:09.333Z,54.60
2019-04-01T16:17:38.687Z,54.80
2019-04-01T16:22:37.715Z,67.10
2019-04-01T16:27:36.862Z,67.90
2019-04-01T16:30:08.414Z,68.00
2019-04-01T16:32:37.983Z,68.60
2019-04-01T16:40:07.294Z,68.80
2019-04-01T16:50:10.181Z,69.20
2019-04-01T16:52:39.584Z,56.50
2019-04-01T16:57:40.793Z,69.70
2019-04-01T17:05:12.041Z,69.00
2019-04-01T17:12:43.256Z,69.40
2019-04-01T17:17:42.062Z,69.50
2019-04-01T17:20:11.878Z,70.10
2019-04-01T17:22:41.309Z,59.70
2019-04-01T17:30:14.039Z,63.40
2019-04-01T17:32:43.728Z,70.90
2019-04-01T17:35:14.109Z,67.00
2019-04-01T17:45:25.893Z,72.70
2019-04-01T17:47:55.561Z,62.70
2019-04-01T17:52:54.398Z,73.50
2019-04-01T18:00:32.128Z,74.40
2019-04-01T18:05:30.977Z,75.50
2019-04-01T18:08:00.378Z,75.60
2019-04-01T18:10:30.082Z,66.80
2019-04-01T18:17:58.573Z,76.50
2019-04-01T18:20:27.974Z,65.60
2019-04-01T18:25:26.925Z,67.60
2019-04-01T18:27:56.338Z,75.10
2019-04-01T18:32:55.570Z,78.30
2019-04-01T18:35:25.491Z,78.50
2019-04-01T18:37:55.123Z,79.00
2019-04-01T18:40:32.556Z,73.00
2019-04-01T18:50:24.387Z,80.30
2019-04-01T18:52:53.863Z,78.60
2019-04-01T19:00:22.419Z,80.60
2019-04-01T19:10:20.865Z,76.00
2019-04-01T19:15:19.578Z,80.20
2019-04-01T19:27:46.561Z,80.40
2019-04-01T19:30:18.056Z,80.00
2019-04-01T19:35:17.028Z,80.00
2019-04-01T19:37:46.586Z,79.60
2019-04-01T19:40:16.265Z,78.00
2019-04-01T20:22:44.026Z,79.60
2019-04-01T20:27:44.126Z,72.30
2019-04-01T20:30:14.332Z,80.20
2019-04-01T20:32:44.017Z,80.40
2019-04-01T20:35:23.273Z,80.40
2019-04-01T20:40:15.756Z,80.70
2019-04-01T20:42:46.378Z,75.70
2019-04-01T20:47:45.639Z,81.80
2019-04-01T20:55:14.439Z,82.60
2019-04-01T21:02:42.619Z,83.20
2019-04-01T21:12:40.141Z,75.00
2019-04-01T21:17:38.930Z,79.60
2019-04-01T21:20:09.355Z,84.90
2019-04-01T21:27:37.300Z,85.70
2019-04-01T21:30:11.492Z,85.40
2019-04-01T21:32:40.978Z,86.00
2019-04-01T21:35:10.770Z,79.90
2019-04-01T21:40:09.890Z,86.50
2019-04-01T21:42:39.262Z,86.90
2019-04-01T21:50:08.493Z,87.40
2019-04-01T21:52:38.073Z,87.60
2019-04-01T21:55:08.554Z,87.50
2019-04-01T21:57:38.064Z,87.90
2019-04-01T22:00:17.995Z,88.50
2019-04-01T22:02:47.161Z,82.40
2019-04-01T22:07:45.792Z,88.80
2019-04-01T22:10:15.256Z,86.20
2019-04-01T22:15:14.036Z,80.00
2019-04-01T22:17:43.902Z,88.30
2019-04-01T22:20:13.470Z,78.70
2019-04-01T22:30:11.824Z,90.20
2019-04-01T22:37:40.766Z,90.30
2019-04-01T22:40:10.499Z,90.40
2019-04-01T22:42:39.893Z,80.90
2019-04-01T22:47:38.520Z,90.90
2019-04-01T22:55:07.351Z,91.10
2019-04-01T23:02:35.767Z,91.20
2019-04-01T23:05:08.347Z,91.40
2019-04-01T23:10:08.628Z,91.60
2019-04-01T23:15:09.780Z,91.80
2019-04-01T23:17:39.203Z,92.00
2019-04-01T23:22:37.888Z,92.30
2019-04-01T23:25:08.071Z,92.30
2019-04-01T23:27:37.540Z,92.60
2019-04-01T23:35:08.156Z,93.00
2019-04-01T23:37:38.432Z,93.30
2019-04-01T23:40:08.463Z,93.40
2019-04-01T23:45:08.466Z,88.60
2019-04-01T23:57:37.785Z,94.10
